sensor_id;sensor_type;location;lat;lon;timestamp;P1;durP1;ratioP1;P2;durP2;ratioP2
51495;SDS011;37572;52.094;4.870;2022-07-06T00:01:46;6.10;;;1.63;;
51495;SDS011;37572;52.094;4.870;2022-07-06T00:04:11;2.92;;;1.58;;
51495;SDS011;37572;52.094;4.870;2022-07-06T00:06:37;3.83;;;1.42;;
51495;SDS011;37572;52.094;4.870;2022-07-06T00:09:03;6.20;;;1.60;;
51495;SDS011;37572;52.094;4.870;2022-07-06T00:11:29;5.25;;;1.77;;
51495;SDS011;37572;52.094;4.870;2022-07-06T00:13:54;12.93;;;1.88;;
51495;SDS011;37572;52.094;4.870;2022-07-06T00:16:22;2.95;;;1.33;;
51495;SDS011;37572;52.094;4.870;2022-07-06T00:18:48;4.53;;;1.60;;
51495;SDS011;37572;52.094;4.870;2022-07-06T00:21:14;8.75;;;1.45;;
51495;SDS011;37572;52.094;4.870;2022-07-06T00:23:39;7.85;;;1.88;;
51495;SDS011;37572;52.094;4.870;2022-07-06T00:26:04;7.97;;;1.98;;
51495;SDS011;37572;52.094;4.870;2022-07-06T00:28:30;5.85;;;1.75;;
51495;SDS011;37572;52.094;4.870;2022-07-06T00:30:55;5.35;;;1.48;;
51495;SDS011;37572;52.094;4.870;2022-07-06T00:33:21;3.28;;;1.42;;
51495;SDS011;37572;52.094;4.870;2022-07-06T00:35:46;3.97;;;2.08;;
51495;SDS011;37572;52.094;4.870;2022-07-06T00:38:11;5.93;;;1.40;;
51495;SDS011;37572;52.094;4.870;2022-07-06T00:40:37;4.70;;;1.35;;
51495;SDS011;37572;52.094;4.870;2022-07-06T00:43:02;4.82;;;1.70;;
51495;SDS011;37572;52.094;4.870;2022-07-06T00:45:28;4.60;;;1.55;;
51495;SDS011;37572;52.094;4.870;2022-07-06T00:47:53;5.28;;;1.40;;
51495;SDS011;37572;52.094;4.870;2022-07-06T00:50:18;6.13;;;1.92;;
51495;SDS011;37572;52.094;4.870;2022-07-06T00:52:59;5.60;;;1.50;;
51495;SDS011;37572;52.094;4.870;2022-07-06T00:55:27;6.03;;;1.80;;
51495;SDS011;37572;52.094;4.870;2022-07-06T00:57:53;6.80;;;1.60;;
51495;SDS011;37572;52.094;4.870;2022-07-06T01:00:20;5.53;;;2.28;;
51495;SDS011;37572;52.094;4.870;2022-07-06T01:02:47;5.50;;;1.27;;
51495;SDS011;37572;52.094;4.870;2022-07-06T01:05:14;4.10;;;1.40;;
51495;SDS011;37572;52.094;4.870;2022-07-06T01:07:41;4.47;;;2.00;;
51495;SDS011;37572;52.094;4.870;2022-07-06T01:10:08;4.18;;;1.55;;
51495;SDS011;37572;52.094;4.870;2022-07-06T01:12:35;5.30;;;1.83;;
51495;SDS011;37572;52.094;4.870;2022-07-06T01:15:05;4.60;;;1.42;;
51495;SDS011;37572;52.094;4.870;2022-07-06T01:17:41;5.43;;;1.52;;
51495;SDS011;37572;52.094;4.870;2022-07-06T01:20:14;11.32;;;1.80;;
51495;SDS011;37572;52.094;4.870;2022-07-06T01:22:50;8.10;;;1.38;;
51495;SDS011;37572;52.094;4.870;2022-07-06T01:25:16;3.50;;;1.45;;
51495;SDS011;37572;52.094;4.870;2022-07-06T01:27:43;3.03;;;1.40;;
51495;SDS011;37572;52.094;4.870;2022-07-06T01:30:12;3.92;;;1.90;;
51495;SDS011;37572;52.094;4.870;2022-07-06T01:32:40;4.97;;;1.73;;
51495;SDS011;37572;52.094;4.870;2022-07-06T01:35:07;4.63;;;1.27;;
51495;SDS011;37572;52.094;4.870;2022-07-06T01:37:35;6.00;;;1.63;;
51495;SDS011;37572;52.094;4.870;2022-07-06T01:40:01;7.32;;;1.20;;
51495;SDS011;37572;52.094;4.870;2022-07-06T01:42:28;5.15;;;1.67;;
51495;SDS011;37572;52.094;4.870;2022-07-06T01:44:53;3.95;;;1.58;;
51495;SDS011;37572;52.094;4.870;2022-07-06T01:47:19;3.00;;;1.30;;
51495;SDS011;37572;52.094;4.870;2022-07-06T01:49:44;7.50;;;1.50;;
51495;SDS011;37572;52.094;4.870;2022-07-06T01:52:10;4.13;;;1.23;;
51495;SDS011;37572;52.094;4.870;2022-07-06T01:54:35;6.18;;;1.23;;
51495;SDS011;37572;52.094;4.870;2022-07-06T01:57:01;5.82;;;1.63;;
51495;SDS011;37572;52.094;4.870;2022-07-06T01:59:26;7.05;;;1.95;;
51495;SDS011;37572;52.094;4.870;2022-07-06T02:01:51;1.30;;;1.10;;
51495;SDS011;37572;52.094;4.870;2022-07-06T02:04:16;6.82;;;1.60;;
51495;SDS011;37572;52.094;4.870;2022-07-06T02:06:42;2.72;;;1.00;;
51495;SDS011;37572;52.094;4.870;2022-07-06T02:09:07;4.30;;;1.25;;
51495;SDS011;37572;52.094;4.870;2022-07-06T02:11:32;5.90;;;1.52;;
51495;SDS011;37572;52.094;4.870;2022-07-06T02:13:58;4.25;;;1.42;;
51495;SDS011;37572;52.094;4.870;2022-07-06T02:16:23;6.53;;;1.95;;
51495;SDS011;37572;52.094;4.870;2022-07-06T02:18:49;3.72;;;1.00;;
51495;SDS011;37572;52.094;4.870;2022-07-06T02:21:14;2.75;;;0.90;;
51495;SDS011;37572;52.094;4.870;2022-07-06T02:23:39;2.95;;;1.45;;
51495;SDS011;37572;52.094;4.870;2022-07-06T02:26:04;3.90;;;1.35;;
51495;SDS011;37572;52.094;4.870;2022-07-06T02:28:30;16.42;;;2.22;;
51495;SDS011;37572;52.094;4.870;2022-07-06T02:30:55;3.20;;;1.10;;
51495;SDS011;37572;52.094;4.870;2022-07-06T02:33:21;6.18;;;1.35;;
51495;SDS011;37572;52.094;4.870;2022-07-06T02:35:46;3.67;;;1.20;;
51495;SDS011;37572;52.094;4.870;2022-07-06T02:38:11;5.85;;;1.20;;
51495;SDS011;37572;52.094;4.870;2022-07-06T02:40:37;5.57;;;1.30;;
51495;SDS011;37572;52.094;4.870;2022-07-06T02:43:03;4.50;;;1.30;;
51495;SDS011;37572;52.094;4.870;2022-07-06T02:45:28;4.57;;;1.10;;
51495;SDS011;37572;52.094;4.870;2022-07-06T02:47:54;4.85;;;1.33;;
51495;SDS011;37572;52.094;4.870;2022-07-06T02:50:21;6.47;;;1.40;;
51495;SDS011;37572;52.094;4.870;2022-07-06T02:52:46;2.03;;;1.00;;
51495;SDS011;37572;52.094;4.870;2022-07-06T02:55:12;4.65;;;1.42;;
51495;SDS011;37572;52.094;4.870;2022-07-06T02:57:37;6.57;;;1.30;;
51495;SDS011;37572;52.094;4.870;2022-07-06T03:00:03;2.00;;;1.00;;
51495;SDS011;37572;52.094;4.870;2022-07-06T03:02:29;5.68;;;0.85;;
51495;SDS011;37572;52.094;4.870;2022-07-06T03:04:54;3.95;;;0.95;;
51495;SDS011;37572;52.094;4.870;2022-07-06T03:07:21;4.40;;;1.20;;
51495;SDS011;37572;52.094;4.870;2022-07-06T03:09:46;2.90;;;1.10;;
51495;SDS011;37572;52.094;4.870;2022-07-06T03:12:12;3.47;;;1.15;;
51495;SDS011;37572;52.094;4.870;2022-07-06T03:14:37;3.03;;;0.93;;
51495;SDS011;37572;52.094;4.870;2022-07-06T03:17:02;6.18;;;1.10;;
51495;SDS011;37572;52.094;4.870;2022-07-06T03:19:28;1.70;;;1.08;;
51495;SDS011;37572;52.094;4.870;2022-07-06T03:21:53;2.35;;;0.90;;
51495;SDS011;37572;52.094;4.870;2022-07-06T03:24:18;6.88;;;1.20;;
51495;SDS011;37572;52.094;4.870;2022-07-06T03:26:44;3.85;;;1.20;;
51495;SDS011;37572;52.094;4.870;2022-07-06T03:29:09;4.50;;;1.67;;
51495;SDS011;37572;52.094;4.870;2022-07-06T03:31:34;5.90;;;1.00;;
51495;SDS011;37572;52.094;4.870;2022-07-06T03:34:00;2.30;;;0.90;;
51495;SDS011;37572;52.094;4.870;2022-07-06T03:36:25;3.05;;;0.90;;
51495;SDS011;37572;52.094;4.870;2022-07-06T03:38:50;2.92;;;1.00;;
51495;SDS011;37572;52.094;4.870;2022-07-06T03:41:16;7.72;;;1.10;;
51495;SDS011;37572;52.094;4.870;2022-07-06T03:43:41;3.85;;;0.98;;
51495;SDS011;37572;52.094;4.870;2022-07-06T03:46:06;5.30;;;1.10;;
51495;SDS011;37572;52.094;4.870;2022-07-06T03:48:32;5.95;;;1.95;;
51495;SDS011;37572;52.094;4.870;2022-07-06T03:50:57;2.95;;;1.23;;
51495;SDS011;37572;52.094;4.870;2022-07-06T03:53:22;3.70;;;1.20;;
51495;SDS011;37572;52.094;4.870;2022-07-06T03:55:47;3.42;;;1.42;;
51495;SDS011;37572;52.094;4.870;2022-07-06T03:58:33;5.95;;;0.95;;
51495;SDS011;37572;52.094;4.870;2022-07-06T04:00:58;3.67;;;1.10;;
51495;SDS011;37572;52.094;4.870;2022-07-06T04:03:24;2.42;;;1.23;;
51495;SDS011;37572;52.094;4.870;2022-07-06T04:05:50;4.25;;;1.25;;
51495;SDS011;37572;52.094;4.870;2022-07-06T04:08:15;6.13;;;1.00;;
51495;SDS011;37572;52.094;4.870;2022-07-06T04:10:40;2.05;;;0.90;;
51495;SDS011;37572;52.094;4.870;2022-07-06T04:13:06;5.22;;;1.80;;
51495;SDS011;37572;52.094;4.870;2022-07-06T04:15:31;1.88;;;0.93;;
51495;SDS011;37572;52.094;4.870;2022-07-06T04:17:56;2.92;;;1.13;;
51495;SDS011;37572;52.094;4.870;2022-07-06T04:20:22;4.25;;;0.90;;
51495;SDS011;37572;52.094;4.870;2022-07-06T04:22:50;2.47;;;0.98;;
51495;SDS011;37572;52.094;4.870;2022-07-06T04:25:16;4.07;;;0.70;;
51495;SDS011;37572;52.094;4.870;2022-07-06T04:27:41;1.73;;;0.80;;
51495;SDS011;37572;52.094;4.870;2022-07-06T04:30:08;2.00;;;0.70;;
51495;SDS011;37572;52.094;4.870;2022-07-06T04:32:34;5.05;;;0.80;;
51495;SDS011;37572;52.094;4.870;2022-07-06T04:35:00;2.13;;;0.60;;
51495;SDS011;37572;52.094;4.870;2022-07-06T04:37:26;8.80;;;1.20;;
51495;SDS011;37572;52.094;4.870;2022-07-06T04:39:51;3.33;;;1.50;;
51495;SDS011;37572;52.094;4.870;2022-07-06T04:42:16;2.05;;;0.80;;
51495;SDS011;37572;52.094;4.870;2022-07-06T04:44:42;5.38;;;0.75;;
51495;SDS011;37572;52.094;4.870;2022-07-06T04:47:07;5.03;;;0.90;;
51495;SDS011;37572;52.094;4.870;2022-07-06T04:49:32;1.42;;;0.73;;
51495;SDS011;37572;52.094;4.870;2022-07-06T04:51:57;1.83;;;1.10;;
51495;SDS011;37572;52.094;4.870;2022-07-06T04:54:23;5.05;;;0.68;;
51495;SDS011;37572;52.094;4.870;2022-07-06T04:56:49;4.50;;;1.25;;
51495;SDS011;37572;52.094;4.870;2022-07-06T04:59:14;2.97;;;1.02;;
51495;SDS011;37572;52.094;4.870;2022-07-06T05:01:40;4.22;;;0.70;;
51495;SDS011;37572;52.094;4.870;2022-07-06T05:04:05;3.42;;;1.05;;
51495;SDS011;37572;52.094;4.870;2022-07-06T05:06:32;3.42;;;0.77;;
51495;SDS011;37572;52.094;4.870;2022-07-06T05:08:57;2.25;;;1.15;;
51495;SDS011;37572;52.094;4.870;2022-07-06T05:11:24;3.50;;;1.20;;
51495;SDS011;37572;52.094;4.870;2022-07-06T05:13:50;5.38;;;0.82;;
51495;SDS011;37572;52.094;4.870;2022-07-06T05:16:15;2.20;;;0.70;;
51495;SDS011;37572;52.094;4.870;2022-07-06T05:18:41;4.32;;;1.00;;
51495;SDS011;37572;52.094;4.870;2022-07-06T05:21:06;3.35;;;0.77;;
51495;SDS011;37572;52.094;4.870;2022-07-06T05:23:31;2.45;;;1.08;;
51495;SDS011;37572;52.094;4.870;2022-07-06T05:25:57;5.72;;;1.00;;
51495;SDS011;37572;52.094;4.870;2022-07-06T05:28:22;2.90;;;0.90;;
51495;SDS011;37572;52.094;4.870;2022-07-06T05:30:48;5.80;;;1.13;;
51495;SDS011;37572;52.094;4.870;2022-07-06T05:33:13;1.80;;;0.90;;
51495;SDS011;37572;52.094;4.870;2022-07-06T05:35:38;2.50;;;1.00;;
51495;SDS011;37572;52.094;4.870;2022-07-06T05:38:03;2.88;;;0.90;;
51495;SDS011;37572;52.094;4.870;2022-07-06T05:40:29;4.15;;;1.30;;
51495;SDS011;37572;52.094;4.870;2022-07-06T05:42:55;4.22;;;1.27;;
51495;SDS011;37572;52.094;4.870;2022-07-06T05:45:20;8.07;;;1.35;;
51495;SDS011;37572;52.094;4.870;2022-07-06T05:47:47;15.18;;;1.45;;
51495;SDS011;37572;52.094;4.870;2022-07-06T05:50:31;5.80;;;1.13;;
51495;SDS011;37572;52.094;4.870;2022-07-06T05:53:00;4.45;;;0.80;;
51495;SDS011;37572;52.094;4.870;2022-07-06T05:55:27;5.75;;;0.80;;
51495;SDS011;37572;52.094;4.870;2022-07-06T05:57:53;7.22;;;1.38;;
51495;SDS011;37572;52.094;4.870;2022-07-06T06:00:24;11.00;;;1.00;;
51495;SDS011;37572;52.094;4.870;2022-07-06T06:02:51;1.20;;;0.55;;
51495;SDS011;37572;52.094;4.870;2022-07-06T06:05:17;5.30;;;0.70;;
51495;SDS011;37572;52.094;4.870;2022-07-06T06:07:43;4.88;;;0.70;;
51495;SDS011;37572;52.094;4.870;2022-07-06T06:10:10;3.65;;;0.88;;
51495;SDS011;37572;52.094;4.870;2022-07-06T06:12:37;2.03;;;0.90;;
51495;SDS011;37572;52.094;4.870;2022-07-06T06:15:03;2.85;;;0.60;;
51495;SDS011;37572;52.094;4.870;2022-07-06T06:17:29;3.20;;;0.82;;
51495;SDS011;37572;52.094;4.870;2022-07-06T06:19:55;2.67;;;0.68;;
51495;SDS011;37572;52.094;4.870;2022-07-06T06:22:20;2.22;;;0.60;;
51495;SDS011;37572;52.094;4.870;2022-07-06T06:24:45;7.82;;;0.80;;
51495;SDS011;37572;52.094;4.870;2022-07-06T06:27:11;5.35;;;0.80;;
51495;SDS011;37572;52.094;4.870;2022-07-06T06:29:36;2.38;;;0.65;;
51495;SDS011;37572;52.094;4.870;2022-07-06T06:32:02;3.90;;;0.90;;
51495;SDS011;37572;52.094;4.870;2022-07-06T06:34:27;3.47;;;0.60;;
51495;SDS011;37572;52.094;4.870;2022-07-06T06:36:53;1.60;;;0.50;;
51495;SDS011;37572;52.094;4.870;2022-07-06T06:39:18;3.88;;;0.80;;
51495;SDS011;37572;52.094;4.870;2022-07-06T06:41:43;2.90;;;0.75;;
51495;SDS011;37572;52.094;4.870;2022-07-06T06:44:09;2.47;;;0.47;;
51495;SDS011;37572;52.094;4.870;2022-07-06T06:46:34;3.05;;;0.68;;
51495;SDS011;37572;52.094;4.870;2022-07-06T06:49:00;6.50;;;1.05;;
51495;SDS011;37572;52.094;4.870;2022-07-06T06:51:25;2.42;;;0.50;;
51495;SDS011;37572;52.094;4.870;2022-07-06T06:53:51;1.92;;;0.50;;
51495;SDS011;37572;52.094;4.870;2022-07-06T06:56:16;2.58;;;0.50;;
51495;SDS011;37572;52.094;4.870;2022-07-06T06:58:42;0.95;;;0.40;;
51495;SDS011;37572;52.094;4.870;2022-07-06T07:01:07;1.30;;;0.43;;
51495;SDS011;37572;52.094;4.870;2022-07-06T07:03:33;3.45;;;0.60;;
51495;SDS011;37572;52.094;4.870;2022-07-06T07:05:58;0.68;;;0.40;;
51495;SDS011;37572;52.094;4.870;2022-07-06T07:08:24;0.82;;;0.60;;
51495;SDS011;37572;52.094;4.870;2022-07-06T07:10:49;0.77;;;0.32;;
51495;SDS011;37572;52.094;4.870;2022-07-06T07:13:14;1.25;;;0.25;;
51495;SDS011;37572;52.094;4.870;2022-07-06T07:15:40;1.88;;;0.30;;
51495;SDS011;37572;52.094;4.870;2022-07-06T07:18:05;1.65;;;0.60;;
51495;SDS011;37572;52.094;4.870;2022-07-06T07:20:30;3.53;;;1.27;;
51495;SDS011;37572;52.094;4.870;2022-07-06T07:22:58;1.08;;;0.50;;
51495;SDS011;37572;52.094;4.870;2022-07-06T07:25:23;4.63;;;0.82;;
51495;SDS011;37572;52.094;4.870;2022-07-06T07:27:49;1.08;;;0.32;;
51495;SDS011;37572;52.094;4.870;2022-07-06T07:30:14;2.28;;;0.50;;
51495;SDS011;37572;52.094;4.870;2022-07-06T07:32:39;2.05;;;0.50;;
51495;SDS011;37572;52.094;4.870;2022-07-06T07:35:08;1.00;;;0.35;;
51495;SDS011;37572;52.094;4.870;2022-07-06T07:37:34;2.70;;;0.60;;
51495;SDS011;37572;52.094;4.870;2022-07-06T07:40:00;2.72;;;0.43;;
51495;SDS011;37572;52.094;4.870;2022-07-06T07:42:25;2.50;;;0.40;;
51495;SDS011;37572;52.094;4.870;2022-07-06T07:44:50;0.80;;;0.32;;
51495;SDS011;37572;52.094;4.870;2022-07-06T07:47:16;1.88;;;0.50;;
51495;SDS011;37572;52.094;4.870;2022-07-06T07:49:42;1.10;;;0.45;;
51495;SDS011;37572;52.094;4.870;2022-07-06T07:52:07;2.53;;;0.40;;
51495;SDS011;37572;52.094;4.870;2022-07-06T07:54:33;1.13;;;0.50;;
51495;SDS011;37572;52.094;4.870;2022-07-06T07:56:58;0.68;;;0.35;;
51495;SDS011;37572;52.094;4.870;2022-07-06T07:59:24;3.03;;;0.77;;
51495;SDS011;37572;52.094;4.870;2022-07-06T08:01:49;0.60;;;0.40;;
51495;SDS011;37572;52.094;4.870;2022-07-06T08:04:14;1.20;;;0.30;;
51495;SDS011;37572;52.094;4.870;2022-07-06T08:06:40;4.13;;;0.50;;
51495;SDS011;37572;52.094;4.870;2022-07-06T08:09:05;4.75;;;0.43;;
51495;SDS011;37572;52.094;4.870;2022-07-06T08:11:32;2.15;;;0.43;;
51495;SDS011;37572;52.094;4.870;2022-07-06T08:13:58;1.77;;;0.60;;
51495;SDS011;37572;52.094;4.870;2022-07-06T08:16:24;3.72;;;0.45;;
51495;SDS011;37572;52.094;4.870;2022-07-06T08:18:50;1.13;;;0.50;;
51495;SDS011;37572;52.094;4.870;2022-07-06T08:21:15;0.52;;;0.40;;
51495;SDS011;37572;52.094;4.870;2022-07-06T08:23:40;1.95;;;0.50;;
51495;SDS011;37572;52.094;4.870;2022-07-06T08:26:06;5.40;;;0.55;;
51495;SDS011;37572;52.094;4.870;2022-07-06T08:28:31;1.27;;;0.40;;
51495;SDS011;37572;52.094;4.870;2022-07-06T08:30:56;1.60;;;0.40;;
51495;SDS011;37572;52.094;4.870;2022-07-06T08:33:22;0.45;;;0.38;;
51495;SDS011;37572;52.094;4.870;2022-07-06T08:35:47;2.58;;;0.57;;
51495;SDS011;37572;52.094;4.870;2022-07-06T08:38:13;0.65;;;0.30;;
51495;SDS011;37572;52.094;4.870;2022-07-06T08:40:38;0.68;;;0.30;;
51495;SDS011;37572;52.094;4.870;2022-07-06T08:43:07;0.80;;;0.30;;
51495;SDS011;37572;52.094;4.870;2022-07-06T08:45:33;2.70;;;0.38;;
51495;SDS011;37572;52.094;4.870;2022-07-06T08:48:03;1.95;;;0.47;;
51495;SDS011;37572;52.094;4.870;2022-07-06T08:50:29;1.05;;;0.50;;
51495;SDS011;37572;52.094;4.870;2022-07-06T08:52:55;4.00;;;0.82;;
51495;SDS011;37572;52.094;4.870;2022-07-06T08:55:22;1.80;;;0.30;;
51495;SDS011;37572;52.094;4.870;2022-07-06T08:57:48;4.22;;;0.52;;
51495;SDS011;37572;52.094;4.870;2022-07-06T09:00:14;1.77;;;0.50;;
51495;SDS011;37572;52.094;4.870;2022-07-06T09:02:40;1.65;;;0.50;;
51495;SDS011;37572;52.094;4.870;2022-07-06T09:05:06;4.88;;;0.63;;
51495;SDS011;37572;52.094;4.870;2022-07-06T09:07:33;1.63;;;0.30;;
51495;SDS011;37572;52.094;4.870;2022-07-06T09:09:59;9.30;;;0.82;;
51495;SDS011;37572;52.094;4.870;2022-07-06T09:12:28;1.95;;;0.43;;
51495;SDS011;37572;52.094;4.870;2022-07-06T09:14:54;1.92;;;0.40;;
51495;SDS011;37572;52.094;4.870;2022-07-06T09:17:22;4.88;;;1.23;;
51495;SDS011;37572;52.094;4.870;2022-07-06T09:19:50;1.52;;;0.50;;
51495;SDS011;37572;52.094;4.870;2022-07-06T09:22:29;1.58;;;0.40;;
51495;SDS011;37572;52.094;4.870;2022-07-06T09:25:06;2.13;;;0.57;;
51495;SDS011;37572;52.094;4.870;2022-07-06T09:27:36;0.70;;;0.38;;
51495;SDS011;37572;52.094;4.870;2022-07-06T09:30:09;1.00;;;0.70;;
51495;SDS011;37572;52.094;4.870;2022-07-06T09:32:48;2.42;;;0.50;;
51495;SDS011;37572;52.094;4.870;2022-07-06T09:35:25;3.60;;;0.82;;
51495;SDS011;37572;52.094;4.870;2022-07-06T09:38:04;3.20;;;0.55;;
51495;SDS011;37572;52.094;4.870;2022-07-06T09:40:32;1.50;;;0.70;;
51495;SDS011;37572;52.094;4.870;2022-07-06T09:45:47;3.28;;;0.50;;
51495;SDS011;37572;52.094;4.870;2022-07-06T09:48:15;1.92;;;0.45;;
51495;SDS011;37572;52.094;4.870;2022-07-06T09:50:46;1.05;;;0.35;;
51495;SDS011;37572;52.094;4.870;2022-07-06T09:53:16;1.48;;;0.40;;
51495;SDS011;37572;52.094;4.870;2022-07-06T09:55:46;1.08;;;0.30;;
51495;SDS011;37572;52.094;4.870;2022-07-06T09:58:13;0.98;;;0.45;;
51495;SDS011;37572;52.094;4.870;2022-07-06T10:00:39;1.45;;;0.43;;
51495;SDS011;37572;52.094;4.870;2022-07-06T10:03:05;6.30;;;0.47;;
51495;SDS011;37572;52.094;4.870;2022-07-06T10:05:32;4.40;;;0.65;;
51495;SDS011;37572;52.094;4.870;2022-07-06T10:07:58;1.83;;;0.57;;
51495;SDS011;37572;52.094;4.870;2022-07-06T10:10:25;2.08;;;0.40;;
51495;SDS011;37572;52.094;4.870;2022-07-06T10:12:54;1.42;;;0.45;;
51495;SDS011;37572;52.094;4.870;2022-07-06T10:15:24;2.33;;;0.47;;
51495;SDS011;37572;52.094;4.870;2022-07-06T10:17:51;2.40;;;0.70;;
51495;SDS011;37572;52.094;4.870;2022-07-06T10:20:17;1.52;;;0.40;;
51495;SDS011;37572;52.094;4.870;2022-07-06T10:22:44;2.03;;;0.55;;
51495;SDS011;37572;52.094;4.870;2022-07-06T10:25:09;0.98;;;0.50;;
51495;SDS011;37572;52.094;4.870;2022-07-06T10:27:35;1.23;;;0.50;;
51495;SDS011;37572;52.094;4.870;2022-07-06T10:30:01;3.50;;;0.73;;
51495;SDS011;37572;52.094;4.870;2022-07-06T10:32:27;1.58;;;0.65;;
51495;SDS011;37572;52.094;4.870;2022-07-06T10:34:53;1.95;;;0.52;;
51495;SDS011;37572;52.094;4.870;2022-07-06T10:37:26;2.53;;;0.70;;
51495;SDS011;37572;52.094;4.870;2022-07-06T10:39:52;3.90;;;0.60;;
51495;SDS011;37572;52.094;4.870;2022-07-06T10:42:41;2.05;;;0.90;;
51495;SDS011;37572;52.094;4.870;2022-07-06T10:45:13;2.15;;;0.95;;
51495;SDS011;37572;52.094;4.870;2022-07-06T10:47:42;1.27;;;0.57;;
51495;SDS011;37572;52.094;4.870;2022-07-06T10:50:09;1.20;;;0.40;;
51495;SDS011;37572;52.094;4.870;2022-07-06T10:52:52;1.77;;;0.50;;
51495;SDS011;37572;52.094;4.870;2022-07-06T10:55:31;1.58;;;0.80;;
51495;SDS011;37572;52.094;4.870;2022-07-06T10:57:59;1.67;;;0.77;;
51495;SDS011;37572;52.094;4.870;2022-07-06T11:00:25;2.28;;;0.52;;
51495;SDS011;37572;52.094;4.870;2022-07-06T11:02:51;1.33;;;0.50;;
51495;SDS011;37572;52.094;4.870;2022-07-06T11:08:10;4.78;;;1.27;;
51495;SDS011;37572;52.094;4.870;2022-07-06T11:10:48;4.20;;;0.77;;
51495;SDS011;37572;52.094;4.870;2022-07-06T11:13:29;2.05;;;0.43;;
51495;SDS011;37572;52.094;4.870;2022-07-06T11:16:01;2.83;;;0.70;;
51495;SDS011;37572;52.094;4.870;2022-07-06T11:18:28;1.88;;;0.70;;
51495;SDS011;37572;52.094;4.870;2022-07-06T11:21:22;2.05;;;0.70;;
51495;SDS011;37572;52.094;4.870;2022-07-06T11:23:56;3.28;;;0.60;;
51495;SDS011;37572;52.094;4.870;2022-07-06T11:26:22;4.13;;;0.95;;
51495;SDS011;37572;52.094;4.870;2022-07-06T11:28:47;2.80;;;0.73;;
51495;SDS011;37572;52.094;4.870;2022-07-06T11:31:13;7.00;;;1.05;;
51495;SDS011;37572;52.094;4.870;2022-07-06T11:33:40;2.90;;;0.55;;
51495;SDS011;37572;52.094;4.870;2022-07-06T11:38:37;1.90;;;0.60;;
51495;SDS011;37572;52.094;4.870;2022-07-06T11:41:02;4.47;;;0.80;;
51495;SDS011;37572;52.094;4.870;2022-07-06T11:43:28;6.50;;;0.90;;
51495;SDS011;37572;52.094;4.870;2022-07-06T11:45:53;0.98;;;0.50;;
51495;SDS011;37572;52.094;4.870;2022-07-06T11:48:18;3.17;;;0.50;;
51495;SDS011;37572;52.094;4.870;2022-07-06T11:50:44;2.72;;;0.95;;
51495;SDS011;37572;52.094;4.870;2022-07-06T11:53:22;3.33;;;0.60;;
51495;SDS011;37572;52.094;4.870;2022-07-06T11:55:47;3.75;;;0.88;;
51495;SDS011;37572;52.094;4.870;2022-07-06T11:58:13;3.00;;;0.82;;
51495;SDS011;37572;52.094;4.870;2022-07-06T12:00:39;5.10;;;1.05;;
51495;SDS011;37572;52.094;4.870;2022-07-06T12:03:04;2.88;;;0.80;;
51495;SDS011;37572;52.094;4.870;2022-07-06T12:05:30;3.33;;;0.70;;
51495;SDS011;37572;52.094;4.870;2022-07-06T12:08:06;1.75;;;0.73;;
51495;SDS011;37572;52.094;4.870;2022-07-06T12:10:34;1.40;;;0.60;;
51495;SDS011;37572;52.094;4.870;2022-07-06T12:13:04;1.83;;;0.60;;
51495;SDS011;37572;52.094;4.870;2022-07-06T12:15:29;2.03;;;0.50;;
51495;SDS011;37572;52.094;4.870;2022-07-06T12:17:55;2.13;;;0.88;;
51495;SDS011;37572;52.094;4.870;2022-07-06T12:20:20;2.15;;;0.60;;
51495;SDS011;37572;52.094;4.870;2022-07-06T12:22:46;4.18;;;0.75;;
51495;SDS011;37572;52.094;4.870;2022-07-06T12:25:11;3.03;;;0.47;;
51495;SDS011;37572;52.094;4.870;2022-07-06T12:27:36;2.25;;;0.90;;
51495;SDS011;37572;52.094;4.870;2022-07-06T12:30:09;5.03;;;0.75;;
51495;SDS011;37572;52.094;4.870;2022-07-06T12:32:35;6.10;;;0.80;;
51495;SDS011;37572;52.094;4.870;2022-07-06T12:35:07;4.55;;;0.73;;
51495;SDS011;37572;52.094;4.870;2022-07-06T12:37:34;5.65;;;0.63;;
51495;SDS011;37572;52.094;4.870;2022-07-06T12:39:59;8.82;;;1.23;;
51495;SDS011;37572;52.094;4.870;2022-07-06T12:42:25;4.03;;;0.88;;
51495;SDS011;37572;52.094;4.870;2022-07-06T12:44:51;3.53;;;1.08;;
51495;SDS011;37572;52.094;4.870;2022-07-06T12:47:18;2.10;;;0.88;;
51495;SDS011;37572;52.094;4.870;2022-07-06T12:49:49;1.85;;;1.00;;
51495;SDS011;37572;52.094;4.870;2022-07-06T12:52:29;5.50;;;1.27;;
51495;SDS011;37572;52.094;4.870;2022-07-06T12:54:54;9.35;;;1.30;;
51495;SDS011;37572;52.094;4.870;2022-07-06T12:57:20;1.52;;;0.70;;
51495;SDS011;37572;52.094;4.870;2022-07-06T12:59:57;5.43;;;1.02;;
51495;SDS011;37572;52.094;4.870;2022-07-06T13:02:29;4.95;;;0.80;;
51495;SDS011;37572;52.094;4.870;2022-07-06T13:04:57;9.25;;;2.70;;
51495;SDS011;37572;52.094;4.870;2022-07-06T13:07:25;7.13;;;1.60;;
51495;SDS011;37572;52.094;4.870;2022-07-06T13:09:52;13.30;;;3.67;;
51495;SDS011;37572;52.094;4.870;2022-07-06T13:12:18;11.25;;;2.58;;
51495;SDS011;37572;52.094;4.870;2022-07-06T13:14:44;6.82;;;2.40;;
51495;SDS011;37572;52.094;4.870;2022-07-06T13:17:09;5.65;;;1.88;;
51495;SDS011;37572;52.094;4.870;2022-07-06T13:19:34;3.40;;;1.10;;
51495;SDS011;37572;52.094;4.870;2022-07-06T13:22:00;18.45;;;2.63;;
51495;SDS011;37572;52.094;4.870;2022-07-06T13:24:25;5.47;;;1.30;;
51495;SDS011;37572;52.094;4.870;2022-07-06T13:26:53;13.95;;;1.30;;
51495;SDS011;37572;52.094;4.870;2022-07-06T13:29:18;2.83;;;0.88;;
51495;SDS011;37572;52.094;4.870;2022-07-06T13:31:44;12.65;;;1.17;;
51495;SDS011;37572;52.094;4.870;2022-07-06T13:34:09;4.65;;;1.33;;
51495;SDS011;37572;52.094;4.870;2022-07-06T13:36:34;8.25;;;1.33;;
51495;SDS011;37572;52.094;4.870;2022-07-06T13:39:00;6.53;;;1.45;;
51495;SDS011;37572;52.094;4.870;2022-07-06T13:41:26;10.25;;;1.48;;
51495;SDS011;37572;52.094;4.870;2022-07-06T13:43:52;3.05;;;1.00;;
51495;SDS011;37572;52.094;4.870;2022-07-06T13:46:17;6.70;;;1.50;;
51495;SDS011;37572;52.094;4.870;2022-07-06T13:48:43;9.02;;;1.13;;
51495;SDS011;37572;52.094;4.870;2022-07-06T13:51:08;3.55;;;1.33;;
51495;SDS011;37572;52.094;4.870;2022-07-06T13:53:34;5.05;;;1.50;;
51495;SDS011;37572;52.094;4.870;2022-07-06T13:56:00;13.00;;;2.00;;
51495;SDS011;37572;52.094;4.870;2022-07-06T13:58:26;6.60;;;1.77;;
51495;SDS011;37572;52.094;4.870;2022-07-06T14:00:51;4.97;;;1.25;;
51495;SDS011;37572;52.094;4.870;2022-07-06T14:03:17;10.02;;;1.85;;
51495;SDS011;37572;52.094;4.870;2022-07-06T14:05:42;5.95;;;1.50;;
51495;SDS011;37572;52.094;4.870;2022-07-06T14:08:07;6.85;;;2.00;;
51495;SDS011;37572;52.094;4.870;2022-07-06T14:10:33;4.70;;;1.13;;
51495;SDS011;37572;52.094;4.870;2022-07-06T14:12:58;6.45;;;1.63;;
51495;SDS011;37572;52.094;4.870;2022-07-06T14:15:23;7.18;;;2.10;;
51495;SDS011;37572;52.094;4.870;2022-07-06T14:17:49;5.75;;;1.70;;
51495;SDS011;37572;52.094;4.870;2022-07-06T14:20:14;6.70;;;2.10;;
51495;SDS011;37572;52.094;4.870;2022-07-06T14:22:40;4.28;;;1.88;;
51495;SDS011;37572;52.094;4.870;2022-07-06T14:25:06;6.25;;;2.20;;
51495;SDS011;37572;52.094;4.870;2022-07-06T14:27:32;10.30;;;3.10;;
51495;SDS011;37572;52.094;4.870;2022-07-06T14:29:58;6.35;;;2.50;;
51495;SDS011;37572;52.094;4.870;2022-07-06T14:32:24;5.18;;;2.67;;
51495;SDS011;37572;52.094;4.870;2022-07-06T14:34:49;5.10;;;2.63;;
51495;SDS011;37572;52.094;4.870;2022-07-06T14:37:14;12.80;;;3.13;;
51495;SDS011;37572;52.094;4.870;2022-07-06T14:39:40;11.23;;;3.42;;
51495;SDS011;37572;52.094;4.870;2022-07-06T14:42:05;9.23;;;5.32;;
51495;SDS011;37572;52.094;4.870;2022-07-06T14:44:31;10.13;;;4.53;;
51495;SDS011;37572;52.094;4.870;2022-07-06T14:46:56;7.00;;;4.47;;
51495;SDS011;37572;52.094;4.870;2022-07-06T14:49:21;7.38;;;4.45;;
51495;SDS011;37572;52.094;4.870;2022-07-06T14:51:47;7.35;;;4.65;;
51495;SDS011;37572;52.094;4.870;2022-07-06T14:54:13;9.95;;;5.90;;